createdAt,value
2018-07-14T00:00:21.390Z,0.00
2018-07-14T00:01:21.409Z,0.00
2018-07-14T00:03:14.342Z,0.00
2018-07-14T00:04:14.347Z,0.00
2018-07-14T00:06:08.273Z,0.00
2018-07-14T00:07:08.276Z,0.00
2018-07-14T00:09:01.188Z,0.00
2018-07-14T00:10:01.262Z,0.00
2018-07-14T00:11:54.335Z,0.00
2018-07-14T00:12:54.341Z,0.00
2018-07-14T00:14:47.255Z,0.00
2018-07-14T00:15:47.274Z,0.00
2018-07-14T00:17:40.208Z,0.00
2018-07-14T00:18:40.209Z,0.00
2018-07-14T00:20:33.122Z,0.00
2018-07-14T00:21:33.144Z,0.00
2018-07-14T00:23:26.081Z,0.00
2018-07-14T00:24:26.156Z,0.00
2018-07-14T00:26:19.001Z,0.00
2018-07-14T00:27:19.026Z,0.00
2018-07-14T00:29:11.955Z,0.00
2018-07-14T00:30:11.956Z,0.00
2018-07-14T00:32:04.887Z,0.00
2018-07-14T00:33:04.891Z,0.00
2018-07-14T00:34:57.802Z,0.00
2018-07-14T00:35:57.826Z,0.00
2018-07-14T00:37:50.759Z,0.00
2018-07-14T00:38:50.758Z,0.00
2018-07-14T00:40:43.677Z,0.00
2018-07-14T00:41:43.704Z,0.00
2018-07-14T00:43:36.634Z,0.00
2018-07-14T00:44:36.640Z,0.00
2018-07-14T00:46:29.549Z,0.00
2018-07-14T00:47:29.571Z,0.00
2018-07-14T00:49:22.504Z,0.00
2018-07-14T00:50:22.507Z,0.00
2018-07-14T00:52:15.422Z,0.00
2018-07-14T00:53:15.441Z,0.00
2018-07-14T00:55:08.372Z,0.00
2018-07-14T00:56:08.375Z,0.00
2018-07-14T00:58:01.314Z,0.00
2018-07-14T00:59:01.320Z,0.00
2018-07-14T01:00:54.233Z,0.00
2018-07-14T01:01:54.251Z,0.00
2018-07-14T01:03:47.187Z,0.00
2018-07-14T01:04:47.186Z,0.00
2018-07-14T01:06:40.100Z,0.00
2018-07-14T01:07:40.119Z,0.00
2018-07-14T01:09:33.056Z,0.00
2018-07-14T01:10:33.119Z,0.00
2018-07-14T01:12:25.967Z,0.00
2018-07-14T01:13:26.010Z,0.00
2018-07-14T01:15:19.200Z,0.00
2018-07-14T01:16:19.125Z,0.00
2018-07-14T01:18:12.069Z,0.00
2018-07-14T01:19:12.057Z,0.00
2018-07-14T01:21:05.134Z,0.00
2018-07-14T01:22:05.139Z,0.00
2018-07-14T01:23:58.073Z,0.00
2018-07-14T01:24:58.073Z,0.00
2018-07-14T01:26:51.003Z,0.00
2018-07-14T01:27:51.007Z,0.00
2018-07-14T01:29:43.937Z,0.00
2018-07-14T01:30:43.936Z,0.00
2018-07-14T01:32:36.853Z,0.00
2018-07-14T01:33:36.870Z,0.00
2018-07-14T01:35:29.801Z,0.00
2018-07-14T01:36:29.802Z,0.00
2018-07-14T01:38:22.715Z,0.00
2018-07-14T01:39:22.737Z,0.00
2018-07-14T01:41:16.662Z,0.00
2018-07-14T01:42:16.663Z,0.00
2018-07-14T01:44:09.598Z,0.00
2018-07-14T01:45:09.599Z,0.00
2018-07-14T01:47:02.510Z,0.00
2018-07-14T01:48:02.532Z,0.00
2018-07-14T01:49:55.460Z,0.00
2018-07-14T01:50:55.463Z,0.00
2018-07-14T01:52:48.376Z,0.00
2018-07-14T01:53:48.396Z,0.00
2018-07-14T01:55:41.328Z,0.00
2018-07-14T01:56:41.330Z,0.00
2018-07-14T01:58:34.243Z,0.00
2018-07-14T01:59:34.267Z,0.00
2018-07-14T02:01:27.688Z,0.00
2018-07-14T02:02:27.689Z,0.00
2018-07-14T02:04:20.620Z,0.00
2018-07-14T02:05:20.644Z,0.00
2018-07-14T02:07:13.542Z,0.00
2018-07-14T02:08:13.565Z,0.00
2018-07-14T02:10:06.489Z,0.00
2018-07-14T02:11:07.023Z,0.00
2018-07-14T02:12:59.399Z,0.00
2018-07-14T02:13:59.424Z,0.00
2018-07-14T02:15:52.351Z,0.00
2018-07-14T02:16:52.351Z,0.00
2018-07-14T02:18:45.260Z,0.00
2018-07-14T02:19:45.283Z,0.00
2018-07-14T02:21:38.213Z,0.00
2018-07-14T02:22:38.216Z,0.00
2018-07-14T02:24:31.151Z,0.00
2018-07-14T02:25:31.151Z,0.00
2018-07-14T02:27:24.065Z,0.00
2018-07-14T02:28:24.089Z,0.00
2018-07-14T02:30:17.017Z,0.00
2018-07-14T02:31:17.021Z,0.00
2018-07-14T02:33:09.928Z,0.00
2018-07-14T02:34:09.948Z,0.00
2018-07-14T02:36:02.877Z,0.00
2018-07-14T02:37:02.878Z,0.00
2018-07-14T02:38:55.790Z,0.00
2018-07-14T02:39:55.809Z,4.00
2018-07-14T02:41:48.805Z,4.00
2018-07-14T02:42:48.744Z,4.00
2018-07-14T02:44:41.653Z,4.00
2018-07-14T02:45:41.674Z,4.00
2018-07-14T02:47:34.607Z,4.00
2018-07-14T02:48:34.607Z,4.00
2018-07-14T02:50:27.542Z,4.00
2018-07-14T02:51:27.540Z,8.00
2018-07-14T02:53:20.452Z,12.00
2018-07-14T02:54:20.473Z,12.00
2018-07-14T02:56:13.406Z,12.00
2018-07-14T02:57:13.403Z,16.00
2018-07-14T02:59:06.316Z,20.00
2018-07-14T03:00:06.340Z,24.00
2018-07-14T03:01:59.271Z,28.00
2018-07-14T03:02:59.272Z,32.00
2018-07-14T03:04:52.189Z,36.00
2018-07-14T03:05:52.205Z,40.00
2018-07-14T03:07:45.140Z,44.00
2018-07-14T03:08:45.136Z,48.00
2018-07-14T03:10:38.047Z,56.00
2018-07-14T03:11:38.075Z,64.00
2018-07-14T03:13:31.995Z,76.00
2018-07-14T03:14:31.994Z,84.00
2018-07-14T03:16:24.927Z,104.00
2018-07-14T03:17:24.926Z,116.00
2018-07-14T03:19:17.896Z,140.00
2018-07-14T03:20:17.867Z,156.00
2018-07-14T03:22:10.789Z,188.00
2018-07-14T03:23:10.792Z,208.00
2018-07-14T03:25:03.707Z,244.00
2018-07-14T03:26:03.727Z,268.00
2018-07-14T03:27:56.658Z,312.00
2018-07-14T03:28:56.663Z,332.00
2018-07-14T03:30:49.571Z,372.00
2018-07-14T03:31:49.590Z,392.00
2018-07-14T03:33:42.523Z,444.00
2018-07-14T03:34:42.524Z,472.00
2018-07-14T03:36:35.495Z,528.00
2018-07-14T03:37:35.457Z,556.00
2018-07-14T03:39:28.372Z,624.00
2018-07-14T03:40:28.393Z,660.00
2018-07-14T03:42:21.327Z,748.00
2018-07-14T03:43:21.385Z,800.00
2018-07-14T03:45:14.246Z,908.00
2018-07-14T03:46:14.350Z,972.00
2018-07-14T03:48:07.198Z,1088.00
2018-07-14T03:49:07.197Z,1140.00
2018-07-14T03:51:00.111Z,1240.00
2018-07-14T03:52:00.132Z,1284.00
2018-07-14T03:53:53.060Z,1364.00
2018-07-14T03:54:53.062Z,1408.00
2018-07-14T03:56:45.992Z,1500.00
2018-07-14T03:57:45.995Z,1560.00
2018-07-14T03:59:39.423Z,1692.00
2018-07-14T04:00:39.422Z,1756.00
2018-07-14T04:02:32.360Z,1860.00
2018-07-14T04:03:32.357Z,1932.00
2018-07-14T04:05:25.336Z,1996.00
2018-07-14T04:06:25.366Z,2052.00
2018-07-14T04:08:18.233Z,2292.00
2018-07-14T04:09:18.293Z,2416.00
2018-07-14T04:11:11.151Z,2688.00
2018-07-14T04:12:11.173Z,2732.00
2018-07-14T04:14:04.116Z,2608.00
2018-07-14T04:15:04.118Z,2508.00
2018-07-14T04:16:57.029Z,2368.00
2018-07-14T04:17:57.053Z,2376.00
2018-07-14T04:19:49.987Z,2608.00
2018-07-14T04:20:49.988Z,2640.00
2018-07-14T04:22:42.900Z,2564.00
2018-07-14T04:23:42.918Z,2416.00
2018-07-14T04:25:35.854Z,2284.00
2018-07-14T04:26:35.856Z,2244.00
2018-07-14T04:28:28.792Z,2244.00
2018-07-14T04:29:28.795Z,2280.00
2018-07-14T04:31:21.708Z,2408.00
2018-07-14T04:32:21.732Z,2508.00
2018-07-14T04:34:14.660Z,2720.00
2018-07-14T04:35:14.663Z,2804.00
2018-07-14T04:37:07.575Z,3044.00
2018-07-14T04:38:07.594Z,3144.00
2018-07-14T04:40:00.528Z,3432.00
2018-07-14T04:41:00.528Z,3752.00
2018-07-14T04:42:53.440Z,3428.00
2018-07-14T04:43:53.462Z,3660.00
2018-07-14T04:45:46.398Z,4328.00
2018-07-14T04:46:46.398Z,4728.00
2018-07-14T04:48:39.334Z,5484.00
2018-07-14T04:49:39.333Z,6544.00
2018-07-14T04:51:32.259Z,8300.00
2018-07-14T04:52:32.266Z,8308.00
2018-07-14T04:54:25.202Z,8692.00
2018-07-14T04:55:25.205Z,8344.00
2018-07-14T04:57:18.129Z,7736.00
2018-07-14T04:58:18.149Z,6684.00
2018-07-14T05:00:11.082Z,6956.00
2018-07-14T05:01:11.092Z,6056.00
2018-07-14T05:03:04.139Z,6224.00
2018-07-14T05:04:04.166Z,6500.00
2018-07-14T05:05:57.099Z,9216.00
2018-07-14T05:06:57.102Z,8972.00
2018-07-14T05:08:50.023Z,9664.00
2018-07-14T05:09:50.051Z,8884.00
2018-07-14T05:11:42.995Z,11104.00
2018-07-14T05:12:42.996Z,11288.00
2018-07-14T05:14:35.953Z,10608.00
2018-07-14T05:15:35.944Z,10532.00
2018-07-14T05:17:28.852Z,9148.00
2018-07-14T05:18:28.929Z,8368.00
2018-07-14T05:20:21.815Z,10416.00
2018-07-14T05:21:21.837Z,9148.00
2018-07-14T05:23:14.735Z,9368.00
2018-07-14T05:24:14.760Z,13476.00
2018-07-14T05:26:07.696Z,13592.00
2018-07-14T05:27:07.704Z,13792.00
2018-07-14T05:29:00.622Z,15296.00
2018-07-14T05:30:00.650Z,15552.00
2018-07-14T05:31:53.794Z,15456.00
2018-07-14T05:32:53.801Z,14816.00
2018-07-14T05:34:46.732Z,15328.00
2018-07-14T05:35:46.750Z,15232.00
2018-07-14T05:37:39.709Z,11772.00
2018-07-14T05:38:39.697Z,7596.00
2018-07-14T05:40:32.655Z,7664.00
2018-07-14T05:41:32.650Z,7804.00
2018-07-14T05:43:25.599Z,9584.00
2018-07-14T05:44:25.606Z,14400.00
2018-07-14T05:46:18.568Z,15776.00
2018-07-14T05:47:18.554Z,16512.00
2018-07-14T05:49:11.475Z,18080.00
2018-07-14T05:50:11.503Z,18976.00
2018-07-14T05:52:04.521Z,18752.00
2018-07-14T05:53:04.458Z,19232.00
2018-07-14T05:54:57.383Z,20480.00
2018-07-14T05:55:57.455Z,20896.00
2018-07-14T05:57:50.355Z,21216.00
2018-07-14T05:58:50.360Z,21408.00
2018-07-14T06:00:43.288Z,22080.00
2018-07-14T06:01:43.319Z,22240.00
2018-07-14T06:03:37.282Z,22560.00
2018-07-14T06:04:37.267Z,22560.00
2018-07-14T06:06:30.209Z,23584.00
2018-07-14T06:07:30.216Z,23776.00
2018-07-14T06:09:23.202Z,23488.00
2018-07-14T06:10:23.170Z,23520.00
2018-07-14T06:12:16.126Z,24288.00
2018-07-14T06:13:16.130Z,24320.00
2018-07-14T06:15:09.055Z,23296.00
2018-07-14T06:16:09.084Z,24160.00
2018-07-14T06:18:02.031Z,24896.00
2018-07-14T06:19:02.042Z,24384.00
2018-07-14T06:20:54.968Z,24352.00
2018-07-14T06:21:54.997Z,24608.00
2018-07-14T06:23:47.947Z,25632.00
2018-07-14T06:24:47.956Z,26336.00
2018-07-14T06:26:40.885Z,26464.00
2018-07-14T06:27:40.914Z,26272.00
2018-07-14T06:29:33.862Z,26624.00
2018-07-14T06:30:33.872Z,27840.00
2018-07-14T06:32:26.828Z,29504.00
2018-07-14T06:33:26.837Z,29600.00
2018-07-14T06:35:19.767Z,29376.00
2018-07-14T06:36:19.799Z,30144.00
2018-07-14T06:38:12.760Z,29856.00
2018-07-14T06:39:12.763Z,29600.00
2018-07-14T06:41:05.707Z,25248.00
2018-07-14T06:42:05.756Z,26144.00
2018-07-14T06:43:58.680Z,28928.00
2018-07-14T06:44:58.694Z,30464.00
2018-07-14T06:46:51.621Z,31584.00
2018-07-14T06:47:51.651Z,33952.00
2018-07-14T06:49:44.668Z,36768.00
2018-07-14T06:50:44.614Z,36896.00
2018-07-14T06:52:37.563Z,42464.00
2018-07-14T06:53:37.573Z,42656.00
2018-07-14T06:55:30.502Z,44128.00
2018-07-14T06:56:30.537Z,43968.00
2018-07-14T06:58:23.489Z,42400.00
2018-07-14T06:59:23.497Z,42592.00
2018-07-14T07:01:16.591Z,41376.00
2018-07-14T07:02:16.620Z,42464.00
2018-07-14T07:04:09.577Z,42720.00
2018-07-14T07:05:09.584Z,43520.00
2018-07-14T07:07:03.512Z,42208.00
2018-07-14T07:08:03.542Z,41376.00
2018-07-14T07:09:56.553Z,40896.00
2018-07-14T07:10:56.557Z,40544.00
2018-07-14T07:12:49.556Z,39648.00
2018-07-14T07:13:49.614Z,39296.00
2018-07-14T07:15:42.565Z,38912.00
2018-07-14T07:16:42.525Z,39776.00
2018-07-14T07:18:35.541Z,40352.00
2018-07-14T07:19:35.509Z,39904.00
2018-07-14T07:21:28.544Z,40192.00
2018-07-14T07:22:28.458Z,40480.00
2018-07-14T07:24:21.413Z,39840.00
2018-07-14T07:25:21.422Z,38816.00
2018-07-14T07:27:14.359Z,17888.00
2018-07-14T07:28:14.389Z,11552.00
2018-07-14T07:30:07.346Z,10684.00
2018-07-14T07:31:07.357Z,10560.00
2018-07-14T07:33:00.290Z,10556.00
2018-07-14T07:34:00.384Z,10584.00
2018-07-14T07:35:53.275Z,10596.00
2018-07-14T07:36:53.278Z,10612.00
2018-07-14T07:38:46.204Z,10536.00
2018-07-14T07:39:46.235Z,10424.00
2018-07-14T07:41:39.187Z,10372.00
2018-07-14T07:42:39.190Z,10328.00
2018-07-14T07:44:32.153Z,10372.00
2018-07-14T07:45:32.161Z,10388.00
2018-07-14T07:47:25.090Z,10172.00
2018-07-14T07:48:25.117Z,10156.00
2018-07-14T07:50:18.064Z,9952.00
2018-07-14T07:51:18.072Z,9960.00
2018-07-14T07:53:10.991Z,9816.00
2018-07-14T07:54:11.023Z,9748.00
2018-07-14T07:56:03.965Z,9632.00
2018-07-14T07:57:03.972Z,9552.00
2018-07-14T07:58:56.949Z,9420.00
2018-07-14T07:59:56.923Z,9340.00
2018-07-14T08:01:49.873Z,9244.00
2018-07-14T08:02:49.874Z,9196.00
2018-07-14T08:04:42.795Z,9160.00
2018-07-14T08:05:42.824Z,9072.00
2018-07-14T08:07:35.772Z,9048.00
2018-07-14T08:08:35.837Z,8996.00
2018-07-14T08:10:28.734Z,8908.00
2018-07-14T08:11:28.727Z,8908.00
2018-07-14T08:13:21.647Z,8980.00
2018-07-14T08:14:21.678Z,8976.00
2018-07-14T08:16:14.616Z,9056.00
2018-07-14T08:17:14.623Z,9152.00
2018-07-14T08:19:07.554Z,9216.00
2018-07-14T08:20:07.577Z,9256.00
2018-07-14T08:22:00.526Z,9228.00
2018-07-14T08:23:00.535Z,9288.00
2018-07-14T08:24:53.454Z,9296.00
2018-07-14T08:25:53.482Z,9352.00
2018-07-14T08:27:46.429Z,9316.00
2018-07-14T08:28:46.431Z,9204.00
2018-07-14T08:30:39.352Z,9104.00
2018-07-14T08:31:39.380Z,8996.00
2018-07-14T08:33:32.328Z,8912.00
2018-07-14T08:34:32.335Z,8820.00
2018-07-14T08:36:25.305Z,8608.00
2018-07-14T08:37:25.290Z,8620.00
2018-07-14T08:39:18.239Z,8544.00
2018-07-14T08:40:18.243Z,8520.00
2018-07-14T08:42:11.198Z,8556.00
2018-07-14T08:43:11.201Z,8584.00
2018-07-14T08:45:04.126Z,8508.00
2018-07-14T08:46:04.149Z,8500.00
2018-07-14T08:47:57.098Z,8480.00
2018-07-14T08:48:57.106Z,8420.00
2018-07-14T08:50:50.035Z,8404.00
2018-07-14T08:51:50.059Z,8460.00
2018-07-14T08:53:43.009Z,8448.00
2018-07-14T08:54:43.014Z,8368.00
2018-07-14T08:56:35.964Z,8216.00
2018-07-14T08:57:35.964Z,8180.00
2018-07-14T08:59:28.892Z,8172.00
2018-07-14T09:00:28.920Z,8160.00
2018-07-14T09:02:21.873Z,8088.00
2018-07-14T09:03:21.878Z,8072.00
2018-07-14T09:05:14.809Z,7964.00
2018-07-14T09:06:14.836Z,7880.00
2018-07-14T09:08:07.787Z,7920.00
2018-07-14T09:09:07.792Z,7936.00
2018-07-14T09:11:00.715Z,7808.00
2018-07-14T09:12:00.744Z,7712.00
2018-07-14T09:13:53.694Z,7620.00
2018-07-14T09:14:53.697Z,7588.00
2018-07-14T09:16:46.623Z,7416.00
2018-07-14T09:17:46.648Z,7332.00
2018-07-14T09:19:39.589Z,7252.00
2018-07-14T09:20:39.601Z,7232.00
2018-07-14T09:22:32.560Z,7188.00
2018-07-14T09:23:32.555Z,7196.00
2018-07-14T09:25:25.478Z,7140.00
2018-07-14T09:26:25.499Z,7100.00
2018-07-14T09:28:18.453Z,7088.00
2018-07-14T09:29:18.457Z,7056.00
2018-07-14T09:31:11.382Z,6992.00
2018-07-14T09:32:11.405Z,6944.00
2018-07-14T09:34:04.377Z,6848.00
2018-07-14T09:35:04.383Z,6824.00
2018-07-14T09:36:57.307Z,6708.00
2018-07-14T09:37:57.383Z,6604.00
2018-07-14T09:39:50.281Z,6484.00
2018-07-14T09:40:50.286Z,6420.00
2018-07-14T09:42:43.212Z,6348.00
2018-07-14T09:43:43.238Z,6316.00
2018-07-14T09:45:36.194Z,6276.00
2018-07-14T09:46:36.201Z,6300.00
2018-07-14T09:48:29.151Z,6304.00
2018-07-14T09:49:29.151Z,6272.00
2018-07-14T09:51:22.077Z,6204.00
2018-07-14T09:52:22.101Z,6168.00
2018-07-14T09:54:15.049Z,6036.00
2018-07-14T09:55:15.128Z,5972.00
2018-07-14T09:57:07.977Z,5924.00
2018-07-14T09:58:08.006Z,5948.00
2018-07-14T10:00:01.099Z,5980.00
2018-07-14T10:01:01.102Z,6292.00
2018-07-14T10:02:54.020Z,7000.00
2018-07-14T10:03:54.053Z,6952.00
2018-07-14T10:05:46.990Z,6520.00
2018-07-14T10:06:46.998Z,6136.00
2018-07-14T10:08:39.952Z,6220.00
2018-07-14T10:09:39.947Z,6596.00
2018-07-14T10:11:32.869Z,6288.00
2018-07-14T10:12:32.897Z,5988.00
2018-07-14T10:14:25.836Z,5920.00
2018-07-14T10:15:25.845Z,5912.00
2018-07-14T10:17:18.775Z,6060.00
2018-07-14T10:18:18.795Z,6076.00
2018-07-14T10:20:11.740Z,6036.00
2018-07-14T10:21:11.741Z,6280.00
2018-07-14T10:23:04.664Z,7072.00
2018-07-14T10:24:04.691Z,7540.00
2018-07-14T10:25:57.728Z,7320.00
2018-07-14T10:26:57.646Z,6672.00
2018-07-14T10:28:50.566Z,6160.00
2018-07-14T10:29:50.593Z,6040.00
2018-07-14T10:31:43.538Z,6040.00
2018-07-14T10:32:50.682Z,6108.00
2018-07-14T10:34:36.516Z,6380.00
2018-07-14T10:35:36.520Z,6448.00
2018-07-14T10:37:29.455Z,6752.00
2018-07-14T10:38:29.471Z,7048.00
2018-07-14T10:40:22.419Z,7536.00
2018-07-14T10:41:22.421Z,7412.00
2018-07-14T10:43:15.343Z,7624.00
2018-07-14T10:44:15.371Z,8200.00
2018-07-14T10:46:08.323Z,7348.00
2018-07-14T10:47:08.327Z,6700.00
2018-07-14T10:49:01.249Z,6144.00
2018-07-14T10:50:01.287Z,5900.00
2018-07-14T10:51:54.227Z,6272.00
2018-07-14T10:52:54.236Z,6428.00
2018-07-14T10:54:47.179Z,7136.00
2018-07-14T10:55:47.182Z,7500.00
2018-07-14T10:57:40.106Z,8860.00
2018-07-14T10:58:40.134Z,9348.00
2018-07-14T11:00:33.073Z,9872.00
2018-07-14T11:01:33.084Z,9780.00
2018-07-14T11:03:26.015Z,8336.00
2018-07-14T11:04:26.104Z,7304.00
2018-07-14T11:06:18.995Z,6064.00
2018-07-14T11:07:18.997Z,5944.00
2018-07-14T11:09:11.923Z,5972.00
2018-07-14T11:10:11.951Z,6052.00
2018-07-14T11:12:04.924Z,6464.00
2018-07-14T11:13:04.908Z,6776.00
2018-07-14T11:14:57.840Z,7740.00
2018-07-14T11:15:57.868Z,8748.00
2018-07-14T11:17:50.870Z,10408.00
2018-07-14T11:18:50.853Z,11180.00
2018-07-14T11:20:43.760Z,13960.00
2018-07-14T11:21:43.787Z,14496.00
2018-07-14T11:23:36.775Z,12840.00
2018-07-14T11:24:36.745Z,11300.00
2018-07-14T11:26:29.680Z,9668.00
2018-07-14T11:27:29.694Z,7812.00
2018-07-14T11:29:22.613Z,6180.00
2018-07-14T11:30:22.735Z,5656.00
2018-07-14T11:32:15.585Z,6156.00
2018-07-14T11:33:15.594Z,6980.00
2018-07-14T11:35:08.521Z,8988.00
2018-07-14T11:36:08.548Z,9980.00
2018-07-14T11:38:01.493Z,12004.00
2018-07-14T11:39:01.501Z,12488.00
2018-07-14T11:40:54.488Z,12576.00
2018-07-14T11:41:54.504Z,11828.00
2018-07-14T11:43:47.455Z,10280.00
2018-07-14T11:44:47.460Z,9672.00
2018-07-14T11:46:40.409Z,6924.00
2018-07-14T11:47:40.532Z,6556.00
2018-07-14T11:49:33.357Z,6672.00
2018-07-14T11:50:33.364Z,6444.00
2018-07-14T11:52:26.327Z,6380.00
2018-07-14T11:53:26.322Z,6880.00
2018-07-14T11:55:19.243Z,7016.00
2018-07-14T11:56:19.273Z,7024.00
2018-07-14T11:58:12.216Z,7912.00
2018-07-14T11:59:12.221Z,8312.00
2018-07-14T12:01:05.173Z,7628.00
2018-07-14T12:02:05.206Z,7348.00
2018-07-14T12:03:58.120Z,7412.00
2018-07-14T12:04:58.126Z,7764.00
2018-07-14T12:06:51.054Z,8148.00
2018-07-14T12:07:51.078Z,8140.00
2018-07-14T12:09:44.052Z,8924.00
2018-07-14T12:10:44.050Z,8708.00
2018-07-14T12:12:36.970Z,8160.00
2018-07-14T12:13:37.035Z,7896.00
2018-07-14T12:15:29.948Z,8000.00
2018-07-14T12:16:29.957Z,7928.00
2018-07-14T12:18:22.904Z,7496.00
2018-07-14T12:19:22.914Z,7700.00
2018-07-14T12:21:15.844Z,8224.00
2018-07-14T12:22:15.881Z,8328.00
2018-07-14T12:24:08.805Z,8540.00
2018-07-14T12:25:08.820Z,8964.00
2018-07-14T12:27:01.743Z,10840.00
2018-07-14T12:28:01.773Z,11524.00
2018-07-14T12:29:54.760Z,10184.00
2018-07-14T12:30:54.740Z,10032.00
2018-07-14T12:32:47.649Z,8912.00
2018-07-14T12:33:47.680Z,8672.00
2018-07-14T12:35:40.690Z,7896.00
2018-07-14T12:36:40.646Z,7944.00
2018-07-14T12:38:33.561Z,7636.00
2018-07-14T12:39:33.591Z,8040.00
2018-07-14T12:41:26.535Z,9796.00
2018-07-14T12:42:26.570Z,10296.00
2018-07-14T12:44:19.489Z,10976.00
2018-07-14T12:45:19.496Z,11208.00
2018-07-14T12:47:12.427Z,10428.00
2018-07-14T12:48:12.480Z,10944.00
2018-07-14T12:50:05.459Z,11572.00
2018-07-14T12:51:05.405Z,11020.00
2018-07-14T12:52:58.331Z,10076.00
2018-07-14T12:53:58.509Z,9040.00
2018-07-14T12:55:51.311Z,7748.00
2018-07-14T12:56:51.317Z,6820.00
2018-07-14T12:58:44.239Z,5844.00
2018-07-14T12:59:44.301Z,5832.00
2018-07-14T13:01:37.216Z,5928.00
2018-07-14T13:02:37.222Z,6288.00
2018-07-14T13:04:30.146Z,6340.00
2018-07-14T13:05:30.174Z,6992.00
2018-07-14T13:07:23.130Z,7668.00
2018-07-14T13:08:23.127Z,7612.00
2018-07-14T13:10:16.078Z,7152.00
2018-07-14T13:11:16.093Z,6648.00
2018-07-14T13:13:09.063Z,6708.00
2018-07-14T13:14:09.038Z,6824.00
2018-07-14T13:16:01.984Z,6824.00
2018-07-14T13:17:01.991Z,6612.00
2018-07-14T13:18:54.915Z,6548.00
2018-07-14T13:19:54.944Z,6244.00
2018-07-14T13:21:48.083Z,5976.00
2018-07-14T13:22:48.088Z,5496.00
2018-07-14T13:24:41.019Z,5064.00
2018-07-14T13:25:41.044Z,5076.00
2018-07-14T13:27:33.986Z,5004.00
2018-07-14T13:28:33.994Z,4940.00
2018-07-14T13:30:27.126Z,5072.00
2018-07-14T13:31:27.149Z,5260.00
2018-07-14T13:33:20.096Z,7280.00
2018-07-14T13:34:20.101Z,6708.00
2018-07-14T13:36:13.111Z,6676.00
2018-07-14T13:37:13.053Z,6132.00
2018-07-14T13:39:05.995Z,5668.00
2018-07-14T13:40:06.011Z,5336.00
2018-07-14T13:41:58.949Z,4532.00
2018-07-14T13:42:58.958Z,4280.00
2018-07-14T13:44:51.882Z,4476.00
2018-07-14T13:45:51.920Z,4696.00
2018-07-14T13:47:44.917Z,5032.00
2018-07-14T13:48:44.863Z,5064.00
2018-07-14T13:50:37.791Z,5092.00
2018-07-14T13:51:37.823Z,5232.00
2018-07-14T13:53:30.781Z,5380.00
2018-07-14T13:54:30.821Z,5276.00
2018-07-14T13:56:23.695Z,5524.00
2018-07-14T13:57:23.722Z,5640.00
2018-07-14T13:59:16.787Z,5860.00
2018-07-14T14:00:16.736Z,6264.00
2018-07-14T14:02:09.619Z,6816.00
2018-07-14T14:03:09.627Z,6972.00
2018-07-14T14:05:02.556Z,6476.00
2018-07-14T14:06:02.585Z,6316.00
2018-07-14T14:07:55.527Z,6780.00
2018-07-14T14:08:55.534Z,7440.00
2018-07-14T14:10:48.459Z,7672.00
2018-07-14T14:11:48.491Z,7348.00
2018-07-14T14:13:41.435Z,7028.00
2018-07-14T14:14:41.441Z,6824.00
2018-07-14T14:16:34.365Z,6228.00
2018-07-14T14:17:34.393Z,6380.00
2018-07-14T14:19:27.339Z,6800.00
2018-07-14T14:20:27.353Z,6816.00
2018-07-14T14:22:20.298Z,6544.00
2018-07-14T14:23:20.308Z,6272.00
2018-07-14T14:25:13.231Z,5736.00
2018-07-14T14:26:13.270Z,5724.00
2018-07-14T14:28:06.203Z,5640.00
2018-07-14T14:29:06.211Z,5484.00
2018-07-14T14:30:59.137Z,5500.00
2018-07-14T14:31:59.166Z,5528.00
2018-07-14T14:33:52.113Z,5732.00
2018-07-14T14:34:52.125Z,6164.00
2018-07-14T14:36:45.044Z,7176.00
2018-07-14T14:37:45.074Z,7604.00
2018-07-14T14:39:38.022Z,7976.00
2018-07-14T14:40:38.032Z,7656.00
2018-07-14T14:42:30.954Z,6360.00
2018-07-14T14:43:30.983Z,6008.00
2018-07-14T14:45:23.931Z,5424.00
2018-07-14T14:46:23.938Z,5064.00
2018-07-14T14:48:16.922Z,4652.00
2018-07-14T14:49:16.894Z,4468.00
2018-07-14T14:51:09.820Z,4256.00
2018-07-14T14:52:09.848Z,4224.00
2018-07-14T14:54:02.831Z,4464.00
2018-07-14T14:55:02.804Z,4396.00
2018-07-14T14:56:55.735Z,4504.00
2018-07-14T14:57:55.762Z,4712.00
2018-07-14T14:59:48.708Z,4896.00
2018-07-14T15:00:48.717Z,4952.00
2018-07-14T15:02:41.640Z,5668.00
2018-07-14T15:03:41.669Z,5992.00
2018-07-14T15:05:34.705Z,6132.00
2018-07-14T15:06:34.621Z,6200.00
2018-07-14T15:08:27.582Z,7048.00
2018-07-14T15:09:27.576Z,7780.00
2018-07-14T15:11:20.501Z,8348.00
2018-07-14T15:12:20.529Z,8232.00
2018-07-14T15:14:13.471Z,8832.00
2018-07-14T15:15:13.485Z,8908.00
2018-07-14T15:17:06.406Z,8188.00
2018-07-14T15:18:06.435Z,8008.00
2018-07-14T15:19:59.382Z,7504.00
2018-07-14T15:20:59.388Z,7276.00
2018-07-14T15:22:52.328Z,6424.00
2018-07-14T15:23:52.348Z,6056.00
2018-07-14T15:25:45.312Z,5448.00
2018-07-14T15:26:45.299Z,5216.00
2018-07-14T15:28:38.238Z,5108.00
2018-07-14T15:29:38.254Z,5028.00
2018-07-14T15:31:32.264Z,4752.00
2018-07-14T15:32:32.252Z,4596.00
2018-07-14T15:34:25.163Z,4348.00
2018-07-14T15:35:25.165Z,4064.00
2018-07-14T15:37:18.092Z,3912.00
2018-07-14T15:38:18.124Z,3848.00
2018-07-14T15:40:11.073Z,3956.00
2018-07-14T15:41:11.078Z,4212.00
2018-07-14T15:43:04.003Z,4352.00
2018-07-14T15:44:04.033Z,4320.00
2018-07-14T15:45:56.978Z,4096.00
2018-07-14T15:46:57.030Z,3972.00
2018-07-14T15:48:49.908Z,3832.00
2018-07-14T15:49:49.941Z,3828.00
2018-07-14T15:51:42.882Z,3924.00
2018-07-14T15:52:42.889Z,3856.00
2018-07-14T15:54:35.834Z,4036.00
2018-07-14T15:55:35.841Z,4028.00
2018-07-14T15:57:28.766Z,3956.00
2018-07-14T15:58:28.793Z,3928.00
2018-07-14T16:00:21.758Z,3952.00
2018-07-14T16:01:21.748Z,3964.00
2018-07-14T16:03:14.705Z,4032.00
2018-07-14T16:04:14.701Z,4164.00
2018-07-14T16:06:07.646Z,4604.00
2018-07-14T16:07:07.655Z,4812.00
2018-07-14T16:09:00.583Z,4884.00
2018-07-14T16:10:00.610Z,4644.00
2018-07-14T16:11:53.565Z,4156.00
2018-07-14T16:12:53.564Z,4012.00
2018-07-14T16:14:46.490Z,3812.00
2018-07-14T16:15:46.522Z,3736.00
2018-07-14T16:17:39.518Z,3660.00
2018-07-14T16:18:39.478Z,3824.00
2018-07-14T16:20:32.490Z,3956.00
2018-07-14T16:21:32.454Z,3896.00
2018-07-14T16:23:25.409Z,3924.00
2018-07-14T16:24:25.413Z,3932.00
2018-07-14T16:26:18.422Z,4072.00
2018-07-14T16:27:18.390Z,4248.00
2018-07-14T16:29:12.312Z,4568.00
2018-07-14T16:30:12.342Z,4616.00
2018-07-14T16:32:05.293Z,4096.00
2018-07-14T16:33:05.298Z,3876.00
2018-07-14T16:34:58.224Z,3744.00
2018-07-14T16:35:58.374Z,3700.00
2018-07-14T16:37:51.200Z,3776.00
2018-07-14T16:38:51.206Z,3756.00
2018-07-14T16:40:44.133Z,3700.00
2018-07-14T16:41:44.171Z,3824.00
2018-07-14T16:43:37.113Z,4084.00
2018-07-14T16:44:37.112Z,4204.00
2018-07-14T16:46:30.311Z,4188.00
2018-07-14T16:47:30.488Z,4216.00
2018-07-14T16:49:23.272Z,4408.00
2018-07-14T16:50:23.302Z,4364.00
2018-07-14T16:52:16.199Z,4380.00
2018-07-14T16:53:16.201Z,4328.00
2018-07-14T16:55:09.125Z,4168.00
2018-07-14T16:56:09.153Z,4184.00
2018-07-14T16:58:02.143Z,4260.00
2018-07-14T16:59:02.108Z,4360.00
2018-07-14T17:00:55.077Z,4240.00
2018-07-14T17:01:55.064Z,4168.00
2018-07-14T17:03:48.007Z,3856.00
2018-07-14T17:04:48.017Z,3708.00
2018-07-14T17:06:40.982Z,3528.00
2018-07-14T17:07:40.997Z,3556.00
2018-07-14T17:09:33.948Z,3864.00
2018-07-14T17:10:33.954Z,4032.00
2018-07-14T17:12:26.880Z,4248.00
2018-07-14T17:13:26.908Z,4356.00
2018-07-14T17:15:20.057Z,4528.00
2018-07-14T17:16:20.065Z,4460.00
2018-07-14T17:18:13.016Z,4400.00
2018-07-14T17:19:13.020Z,4372.00
2018-07-14T17:21:05.982Z,4212.00
2018-07-14T17:22:05.974Z,4072.00
2018-07-14T17:23:58.919Z,3836.00
2018-07-14T17:24:58.927Z,3692.00
2018-07-14T17:26:51.854Z,3600.00
2018-07-14T17:27:51.883Z,3588.00
2018-07-14T17:29:44.834Z,3556.00
2018-07-14T17:30:44.838Z,3544.00
2018-07-14T17:32:37.773Z,3508.00
2018-07-14T17:33:37.792Z,3492.00
2018-07-14T17:35:30.775Z,3456.00
2018-07-14T17:36:30.743Z,3444.00
2018-07-14T17:38:23.672Z,3336.00